Time;durP1;ratioP1;P1;durP2;ratioP2;P2;SDS_P1;SDS_P2;PMS_P1;PMS_P2;Temp;Humidity;BMP_temperature;BMP_pressure;BME280_temperature;BME280_humidity;BME280_pressure;Samples;Min_cycle;Max_cycle;Signal;HPM_P1;HPM_P2
2021/06/28 00:01:11;;;;;;;4.80;3.58;;;;;;;;;;6214871;23;20011;-52
2021/06/28 00:03:37;;;;;;;4.38;3.15;;;;;;;;;;6215176;23;20075;-50
2021/06/28 00:06:04;;;;;;;5.15;3.20;;;;;;;;;;6214249;23;20009;-52
2021/06/28 00:08:30;;;;;;;4.20;3.03;;;;;;;;;;6215131;23;19997;-51
2021/06/28 00:10:56;;;;;;;4.20;3.30;;;;;;;;;;6214963;23;20021;-53
2021/06/28 00:13:22;;;;;;;3.72;2.85;;;;;;;;;;6215145;23;20051;-50
2021/06/28 00:15:48;;;;;;;4.03;3.22;;;;;;;;;;6215172;23;20741;-50
2021/06/28 00:18:15;;;;;;;4.93;2.97;;;;;;;;;;6214804;23;20448;-51
2021/06/28 00:20:42;;;;;;;3.60;2.97;;;;;;;;;;6215042;23;20091;-55
2021/06/28 00:23:08;;;;;;;4.18;3.08;;;;;;;;;;6215218;23;20032;-51
2021/06/28 00:25:34;;;;;;;5.18;3.42;;;;;;;;;;6215479;23;20028;-50
2021/06/28 00:28:00;;;;;;;5.78;3.05;;;;;;;;;;6214532;23;20004;-53
2021/06/28 00:30:27;;;;;;;3.88;3.47;;;;;;;;;;6215309;23;20405;-52
2021/06/28 00:32:55;;;;;;;5.40;3.38;;;;;;;;;;6214969;23;20452;-50
2021/06/28 00:35:22;;;;;;;4.25;3.33;;;;;;;;;;6215024;23;20043;-52
2021/06/28 00:37:48;;;;;;;5.45;3.58;;;;;;;;;;6214767;23;20003;-50
2021/06/28 00:40:15;;;;;;;3.88;3.15;;;;;;;;;;6214605;23;20000;-51
2021/06/28 00:42:41;;;;;;;4.70;3.47;;;;;;;;;;6214950;23;20047;-52
2021/06/28 00:45:16;;;;;;;5.25;4.30;;;;;;;;;;6214737;23;20051;-51
2021/06/28 00:47:42;;;;;;;5.35;3.58;;;;;;;;;;6214004;23;20005;-51
2021/06/28 00:50:09;;;;;;;5.72;3.50;;;;;;;;;;6214626;23;20451;-50
2021/06/28 00:52:35;;;;;;;6.65;3.67;;;;;;;;;;6214600;23;20059;-52
2021/06/28 00:55:01;;;;;;;4.43;3.33;;;;;;;;;;6214662;23;20487;-53
2021/06/28 00:57:27;;;;;;;7.22;4.43;;;;;;;;;;6214169;23;20009;-51
2021/06/28 00:59:53;;;;;;;5.60;3.60;;;;;;;;;;6214195;23;20035;-50
2021/06/28 01:02:19;;;;;;;5.57;4.10;;;;;;;;;;6188045;23;20547;-50
2021/06/28 01:04:45;;;;;;;4.05;3.00;;;;;;;;;;6214349;23;20032;-50
2021/06/28 01:07:11;;;;;;;5.10;3.80;;;;;;;;;;6214580;23;20436;-55
2021/06/28 01:09:37;;;;;;;6.05;3.60;;;;;;;;;;6214461;23;20005;-51
2021/06/28 01:12:04;;;;;;;4.50;3.50;;;;;;;;;;6214491;23;20008;-50
2021/06/28 01:14:30;;;;;;;5.25;3.55;;;;;;;;;;6214727;23;20104;-50
2021/06/28 01:16:57;;;;;;;5.22;3.78;;;;;;;;;;6214737;23;20308;-50
2021/06/28 01:19:26;;;;;;;5.28;3.50;;;;;;;;;;6214097;23;20730;-50
2021/06/28 01:21:52;;;;;;;6.30;3.67;;;;;;;;;;6214721;23;20004;-51
2021/06/28 01:24:18;;;;;;;5.30;4.30;;;;;;;;;;6214956;23;20416;-51
2021/06/28 01:26:45;;;;;;;5.10;3.63;;;;;;;;;;6214455;23;20004;-50
2021/06/28 01:29:11;;;;;;;4.20;3.60;;;;;;;;;;6214600;23;20076;-54
2021/06/28 01:31:37;;;;;;;3.78;3.03;;;;;;;;;;6214836;23;20016;-51
2021/06/28 01:34:03;;;;;;;4.88;3.38;;;;;;;;;;6214651;23;19997;-54
2021/06/28 01:36:29;;;;;;;4.72;3.80;;;;;;;;;;6187882;23;20024;-52
2021/06/28 01:38:55;;;;;;;5.78;3.63;;;;;;;;;;6214068;23;20007;-51
2021/06/28 01:41:21;;;;;;;5.50;3.92;;;;;;;;;;6213816;23;20016;-53
2021/06/28 01:43:47;;;;;;;6.13;4.18;;;;;;;;;;6214633;23;20015;-50
2021/06/28 01:46:16;;;;;;;5.50;4.20;;;;;;;;;;6214981;23;20009;-51
2021/06/28 01:48:43;;;;;;;6.80;4.25;;;;;;;;;;6213996;23;20012;-52
2021/06/28 01:51:10;;;;;;;6.72;4.70;;;;;;;;;;6214726;23;20011;-50
2021/06/28 01:53:36;;;;;;;6.30;4.70;;;;;;;;;;6214714;23;20341;-51
2021/06/28 01:56:05;;;;;;;7.30;5.32;;;;;;;;;;6214594;23;20001;-51
2021/06/28 01:58:31;;;;;;;6.75;4.50;;;;;;;;;;6214421;23;20011;-53
2021/06/28 02:00:57;;;;;;;6.25;4.10;;;;;;;;;;6187701;23;20009;-50
2021/06/28 02:03:24;;;;;;;7.68;4.10;;;;;;;;;;6214497;23;20008;-54
2021/06/28 02:05:51;;;;;;;7.93;4.47;;;;;;;;;;6213102;23;20080;-50
2021/06/28 02:08:18;;;;;;;7.57;4.78;;;;;;;;;;6213498;23;20008;-50
2021/06/28 02:10:49;;;;;;;6.30;4.68;;;;;;;;;;6214479;23;19997;-50
2021/06/28 02:13:19;;;;;;;7.25;4.22;;;;;;;;;;6214706;23;20083;-50
2021/06/28 02:15:45;;;;;;;6.95;4.30;;;;;;;;;;6214503;23;20032;-50
2021/06/28 02:18:11;;;;;;;7.75;4.63;;;;;;;;;;6213956;23;20054;-50
2021/06/28 02:20:37;;;;;;;7.25;3.95;;;;;;;;;;6213928;23;20416;-51
2021/06/28 02:23:21;;;;;;;5.88;4.32;;;;;;;;;;6214950;23;20015;-51
2021/06/28 02:25:54;;;;;;;5.70;4.50;;;;;;;;;;6216416;23;20055;-51
2021/06/28 02:28:20;;;;;;;8.75;4.95;;;;;;;;;;6216059;23;20008;-50
2021/06/28 02:30:46;;;;;;;5.63;4.75;;;;;;;;;;6216604;23;20001;-49
2021/06/28 02:33:12;;;;;;;5.85;4.40;;;;;;;;;;6216082;23;20067;-50
2021/06/28 02:35:38;;;;;;;9.20;4.72;;;;;;;;;;6216148;23;20004;-50
2021/06/28 02:38:04;;;;;;;6.97;4.22;;;;;;;;;;6215599;23;20054;-52
2021/06/28 02:40:30;;;;;;;6.35;4.72;;;;;;;;;;6216189;23;20306;-53
2021/06/28 02:42:56;;;;;;;6.00;3.92;;;;;;;;;;6216454;23;20032;-51
2021/06/28 02:45:21;;;;;;;5.28;4.00;;;;;;;;;;6216712;23;20004;-51
2021/06/28 02:47:47;;;;;;;6.68;3.97;;;;;;;;;;6215138;23;20062;-50
2021/06/28 02:50:14;;;;;;;7.30;4.60;;;;;;;;;;6215746;23;20039;-50
2021/06/28 02:52:40;;;;;;;6.40;4.43;;;;;;;;;;6216501;23;20007;-50
2021/06/28 02:55:07;;;;;;;5.43;4.28;;;;;;;;;;6216405;23;20028;-50
2021/06/28 02:57:33;;;;;;;5.57;4.97;;;;;;;;;;6216038;23;20492;-51
2021/06/28 03:00:00;;;;;;;6.45;4.93;;;;;;;;;;6216280;23;20036;-50
2021/06/28 03:02:26;;;;;;;7.43;4.85;;;;;;;;;;6215754;23;20007;-53
2021/06/28 03:04:52;;;;;;;6.57;5.05;;;;;;;;;;6215964;23;20032;-50
2021/06/28 03:07:18;;;;;;;7.82;5.38;;;;;;;;;;6216069;23;20001;-52
2021/06/28 03:09:44;;;;;;;7.60;4.85;;;;;;;;;;6215800;23;20004;-50
2021/06/28 03:12:12;;;;;;;6.32;4.90;;;;;;;;;;6189374;23;20008;-50
2021/06/28 03:14:38;;;;;;;6.43;5.07;;;;;;;;;;6216342;23;20012;-49
2021/06/28 03:17:04;;;;;;;6.18;4.88;;;;;;;;;;6216213;23;20024;-50
2021/06/28 03:19:30;;;;;;;8.50;5.00;;;;;;;;;;6215345;23;20003;-49
2021/06/28 03:21:56;;;;;;;8.95;5.38;;;;;;;;;;6216054;23;19997;-50
2021/06/28 03:24:22;;;;;;;6.68;5.55;;;;;;;;;;6216173;23;20001;-51
2021/06/28 03:26:48;;;;;;;7.88;5.22;;;;;;;;;;6215702;23;20004;-50
2021/06/28 03:29:14;;;;;;;8.95;5.90;;;;;;;;;;6215682;23;20000;-51
2021/06/28 03:31:40;;;;;;;7.65;5.68;;;;;;;;;;6215835;23;20056;-50
2021/06/28 03:34:06;;;;;;;8.02;5.47;;;;;;;;;;6215478;23;20007;-50
2021/06/28 03:36:32;;;;;;;8.02;5.90;;;;;;;;;;6216240;23;20405;-50
2021/06/28 03:38:58;;;;;;;7.75;5.65;;;;;;;;;;6215496;23;20005;-50
2021/06/28 03:41:24;;;;;;;7.60;5.85;;;;;;;;;;6215153;23;20007;-49
2021/06/28 03:43:50;;;;;;;6.90;5.47;;;;;;;;;;6215446;23;20004;-50
2021/06/28 03:46:16;;;;;;;6.07;4.78;;;;;;;;;;6215402;23;20004;-51
2021/06/28 03:48:44;;;;;;;7.55;5.78;;;;;;;;;;6214858;23;20091;-50
2021/06/28 03:51:10;;;;;;;7.68;5.43;;;;;;;;;;6216032;23;20307;-50
2021/06/28 03:53:36;;;;;;;6.03;4.97;;;;;;;;;;6215989;23;20004;-50
2021/06/28 03:56:06;;;;;;;5.68;4.78;;;;;;;;;;6215695;23;20487;-50
2021/06/28 03:58:33;;;;;;;5.38;4.43;;;;;;;;;;6215267;23;20486;-51
2021/06/28 04:01:00;;;;;;;7.55;4.63;;;;;;;;;;6215589;23;20332;-51
2021/06/28 04:03:28;;;;;;;5.28;4.40;;;;;;;;;;6215747;23;20069;-51
2021/06/28 04:05:54;;;;;;;6.85;5.10;;;;;;;;;;6215186;23;19997;-50
2021/06/28 04:08:20;;;;;;;6.05;5.10;;;;;;;;;;6214083;23;20464;-52
2021/06/28 04:10:46;;;;;;;6.00;4.90;;;;;;;;;;6215133;23;20051;-52
2021/06/28 04:13:12;;;;;;;5.95;4.93;;;;;;;;;;6215393;23;20001;-49
2021/06/28 04:15:38;;;;;;;7.43;4.85;;;;;;;;;;6215801;23;20336;-50
2021/06/28 04:18:04;;;;;;;6.18;4.72;;;;;;;;;;6214850;23;20008;-50
2021/06/28 04:20:30;;;;;;;6.00;4.78;;;;;;;;;;6215334;23;20440;-50
2021/06/28 04:22:56;;;;;;;6.55;4.75;;;;;;;;;;6215222;23;20000;-51
2021/06/28 04:25:23;;;;;;;6.03;4.82;;;;;;;;;;6215309;23;20298;-50
2021/06/28 04:27:50;;;;;;;10.50;4.90;;;;;;;;;;6214736;23;20348;-54
2021/06/28 04:30:17;;;;;;;6.82;5.05;;;;;;;;;;6215159;23;20008;-50
2021/06/28 04:32:43;;;;;;;6.43;5.20;;;;;;;;;;6215728;23;20008;-50
2021/06/28 04:35:10;;;;;;;5.78;4.60;;;;;;;;;;6214624;23;19997;-50
2021/06/28 04:37:36;;;;;;;8.10;5.22;;;;;;;;;;6214441;23;20024;-50
2021/06/28 04:40:03;;;;;;;6.30;4.70;;;;;;;;;;6214803;23;20329;-51
2021/06/28 04:42:29;;;;;;;5.10;4.35;;;;;;;;;;6214300;23;20032;-51
2021/06/28 04:44:55;;;;;;;6.22;4.57;;;;;;;;;;6214652;23;20085;-50
2021/06/28 04:47:21;;;;;;;7.15;5.18;;;;;;;;;;6214312;23;20102;-50
2021/06/28 04:49:47;;;;;;;6.18;4.72;;;;;;;;;;6213643;23;20023;-50
2021/06/28 04:52:13;;;;;;;7.10;4.78;;;;;;;;;;6214675;23;20054;-50
2021/06/28 04:54:39;;;;;;;5.60;4.47;;;;;;;;;;6212864;23;20308;-52
2021/06/28 04:57:05;;;;;;;8.52;4.53;;;;;;;;;;6213029;23;20004;-52
2021/06/28 04:59:31;;;;;;;6.53;4.65;;;;;;;;;;6211755;23;20325;-53
2021/06/28 05:01:57;;;;;;;8.15;4.40;;;;;;;;;;6211942;23;20004;-50
2021/06/28 05:04:23;;;;;;;6.55;4.18;;;;;;;;;;6212386;23;20666;-51
2021/06/28 05:06:49;;;;;;;7.25;4.72;;;;;;;;;;6211863;23;20000;-50
2021/06/28 05:09:16;;;;;;;6.50;4.10;;;;;;;;;;6211473;23;20004;-51
2021/06/28 05:11:42;;;;;;;5.78;4.13;;;;;;;;;;6213300;23;19997;-50
2021/06/28 05:14:08;;;;;;;6.13;3.47;;;;;;;;;;6214313;23;20001;-52
2021/06/28 05:16:34;;;;;;;5.20;3.83;;;;;;;;;;6214410;23;20072;-53
2021/06/28 05:19:00;;;;;;;5.38;4.20;;;;;;;;;;6213157;23;20032;-51
2021/06/28 05:21:26;;;;;;;5.53;3.80;;;;;;;;;;6213745;23;20008;-50
2021/06/28 05:23:52;;;;;;;5.38;3.70;;;;;;;;;;6213982;23;20007;-52
2021/06/28 05:26:18;;;;;;;4.57;3.85;;;;;;;;;;6211689;23;20009;-51
2021/06/28 05:28:44;;;;;;;5.95;3.92;;;;;;;;;;6210521;23;20091;-50
2021/06/28 05:31:10;;;;;;;4.65;3.85;;;;;;;;;;6210965;23;20008;-52
2021/06/28 05:33:36;;;;;;;5.25;4.00;;;;;;;;;;6213134;23;20008;-50
2021/06/28 05:36:02;;;;;;;5.00;4.00;;;;;;;;;;6210509;23;20420;-53
2021/06/28 05:38:28;;;;;;;6.63;4.18;;;;;;;;;;6210118;23;20011;-52
2021/06/28 05:40:54;;;;;;;5.82;4.35;;;;;;;;;;6210482;23;20016;-52
2021/06/28 05:43:20;;;;;;;4.63;3.88;;;;;;;;;;6210766;23;20293;-52
2021/06/28 05:45:46;;;;;;;5.05;3.88;;;;;;;;;;6211370;23;20008;-51
2021/06/28 05:48:12;;;;;;;5.65;3.80;;;;;;;;;;6210566;23;20019;-53
2021/06/28 05:50:39;;;;;;;5.70;3.40;;;;;;;;;;6210701;23;20031;-51
2021/06/28 05:53:06;;;;;;;6.07;4.35;;;;;;;;;;6210273;23;20001;-53
2021/06/28 05:55:32;;;;;;;5.68;4.30;;;;;;;;;;6211382;23;20050;-52
2021/06/28 05:57:58;;;;;;;5.28;4.28;;;;;;;;;;6212888;23;20005;-51
2021/06/28 06:00:24;;;;;;;6.63;3.72;;;;;;;;;;6215501;23;20008;-50
2021/06/28 06:02:51;;;;;;;5.65;4.18;;;;;;;;;;6214724;23;20012;-51
2021/06/28 06:05:17;;;;;;;5.93;4.20;;;;;;;;;;6215270;23;20461;-50
2021/06/28 06:07:43;;;;;;;5.30;4.40;;;;;;;;;;6213377;23;20004;-52
2021/06/28 06:10:11;;;;;;;7.22;5.20;;;;;;;;;;6215539;23;20360;-51
2021/06/28 06:12:37;;;;;;;6.45;4.97;;;;;;;;;;6214695;23;19996;-50
2021/06/28 06:15:04;;;;;;;5.63;4.50;;;;;;;;;;6214951;23;19996;-50
2021/06/28 06:17:30;;;;;;;9.00;5.30;;;;;;;;;;6214005;23;20039;-50
2021/06/28 06:19:57;;;;;;;5.78;4.90;;;;;;;;;;6211512;23;20013;-53
2021/06/28 06:22:23;;;;;;;8.25;4.40;;;;;;;;;;6214815;23;20090;-50
2021/06/28 06:24:49;;;;;;;7.32;4.80;;;;;;;;;;6215429;23;20007;-51
2021/06/28 06:27:16;;;;;;;8.35;4.95;;;;;;;;;;6214939;23;20028;-52
2021/06/28 06:29:44;;;;;;;6.50;4.95;;;;;;;;;;6214563;23;20000;-51
2021/06/28 06:32:10;;;;;;;6.85;5.05;;;;;;;;;;6214955;23;20300;-51
2021/06/28 06:34:36;;;;;;;9.43;5.10;;;;;;;;;;6214530;23;20000;-51
2021/06/28 06:37:02;;;;;;;6.18;4.57;;;;;;;;;;6215340;23;20468;-52
2021/06/28 06:39:28;;;;;;;5.10;4.60;;;;;;;;;;6213194;23;20069;-55
2021/06/28 06:41:54;;;;;;;6.05;4.88;;;;;;;;;;6214023;23;19993;-51
2021/06/28 06:44:20;;;;;;;6.70;5.03;;;;;;;;;;6215122;23;20073;-51
2021/06/28 06:46:46;;;;;;;7.32;4.72;;;;;;;;;;6215445;23;20025;-51
2021/06/28 06:49:12;;;;;;;7.45;4.70;;;;;;;;;;6214485;23;20013;-51
2021/06/28 06:51:39;;;;;;;6.00;4.47;;;;;;;;;;6214812;23;20678;-51
2021/06/28 06:54:05;;;;;;;6.97;4.28;;;;;;;;;;6215785;23;19992;-52
2021/06/28 06:56:31;;;;;;;6.80;4.55;;;;;;;;;;6214139;23;20072;-52
2021/06/28 06:58:57;;;;;;;5.90;4.70;;;;;;;;;;6214475;23;20078;-52
2021/06/28 07:01:23;;;;;;;7.18;5.15;;;;;;;;;;6215466;23;20040;-51
2021/06/28 07:03:49;;;;;;;8.75;5.70;;;;;;;;;;6215660;23;20000;-52
2021/06/28 07:06:15;;;;;;;9.63;6.32;;;;;;;;;;6214326;23;20005;-52
2021/06/28 07:08:41;;;;;;;7.38;6.18;;;;;;;;;;6213942;23;20091;-54
2021/06/28 07:11:11;;;;;;;10.68;7.75;;;;;;;;;;6214675;23;20524;-52
2021/06/28 07:13:38;;;;;;;8.55;6.78;;;;;;;;;;6215205;23;19997;-51
2021/06/28 07:16:04;;;;;;;7.28;5.93;;;;;;;;;;6215331;23;20004;-50
2021/06/28 07:18:30;;;;;;;8.48;6.28;;;;;;;;;;6214877;23;20071;-52
2021/06/28 07:20:56;;;;;;;7.05;5.88;;;;;;;;;;6214960;23;20032;-51
2021/06/28 07:23:22;;;;;;;7.78;5.90;;;;;;;;;;6215912;23;20436;-55
2021/06/28 07:25:47;;;;;;;8.68;5.43;;;;;;;;;;6215536;23;20011;-54
2021/06/28 07:28:14;;;;;;;7.18;5.35;;;;;;;;;;6214830;23;20012;-55
2021/06/28 07:30:41;;;;;;;6.55;4.80;;;;;;;;;;6215167;23;20000;-52
2021/06/28 07:33:07;;;;;;;6.05;4.53;;;;;;;;;;6215110;23;20122;-52
2021/06/28 07:35:33;;;;;;;6.05;4.30;;;;;;;;;;6215587;23;20401;-50
2021/06/28 07:37:59;;;;;;;6.32;4.80;;;;;;;;;;6214358;23;20012;-53
2021/06/28 07:40:25;;;;;;;15.60;4.60;;;;;;;;;;6215344;23;20428;-52
2021/06/28 07:42:52;;;;;;;5.53;4.00;;;;;;;;;;6215239;23;20008;-56
2021/06/28 07:45:18;;;;;;;6.32;4.43;;;;;;;;;;6215123;23;20027;-53
2021/06/28 07:47:45;;;;;;;5.85;4.70;;;;;;;;;;6214899;23;20485;-54
2021/06/28 07:50:11;;;;;;;6.30;4.10;;;;;;;;;;6188300;23;20046;-53
2021/06/28 07:52:37;;;;;;;5.32;4.03;;;;;;;;;;6215134;23;20016;-54
2021/06/28 07:55:05;;;;;;;6.22;4.28;;;;;;;;;;6215677;23;20436;-55
2021/06/28 07:57:31;;;;;;;5.97;4.72;;;;;;;;;;6214166;23;20004;-56
2021/06/28 07:59:57;;;;;;;5.78;4.00;;;;;;;;;;6212405;23;20012;-55
2021/06/28 08:02:23;;;;;;;8.57;3.40;;;;;;;;;;6214935;23;20004;-51
2021/06/28 08:04:52;;;;;;;5.70;3.60;;;;;;;;;;6215236;23;20032;-54
2021/06/28 08:07:18;;;;;;;7.43;4.53;;;;;;;;;;6215099;23;20364;-53
2021/06/28 08:09:44;;;;;;;5.22;4.07;;;;;;;;;;6213594;23;20412;-53
2021/06/28 08:12:10;;;;;;;6.40;4.45;;;;;;;;;;6214816;23;20000;-51
2021/06/28 08:14:36;;;;;;;6.50;4.75;;;;;;;;;;6215030;23;20326;-51
2021/06/28 08:17:02;;;;;;;5.78;4.90;;;;;;;;;;6214023;23;20027;-55
2021/06/28 08:19:28;;;;;;;4.47;3.42;;;;;;;;;;6214790;23;20008;-55
2021/06/28 08:21:54;;;;;;;3.95;3.05;;;;;;;;;;6212020;23;20302;-52
2021/06/28 08:24:21;;;;;;;4.18;3.58;;;;;;;;;;6213961;23;20376;-52
2021/06/28 08:26:51;;;;;;;4.07;3.42;;;;;;;;;;6211606;23;20324;-56
2021/06/28 08:29:17;;;;;;;8.27;3.75;;;;;;;;;;6209580;23;20449;-54
2021/06/28 08:31:45;;;;;;;4.25;2.50;;;;;;;;;;6211866;23;20032;-53
2021/06/28 08:34:11;;;;;;;4.40;2.92;;;;;;;;;;6211298;23;20035;-51
2021/06/28 08:36:38;;;;;;;4.78;2.95;;;;;;;;;;6214069;23;20306;-56
2021/06/28 08:39:04;;;;;;;4.95;3.20;;;;;;;;;;6214069;23;20004;-51
2021/06/28 08:41:30;;;;;;;4.07;2.63;;;;;;;;;;6211983;23;20350;-56
2021/06/28 08:43:56;;;;;;;3.63;2.65;;;;;;;;;;6212648;23;20015;-53
2021/06/28 08:46:22;;;;;;;4.30;2.83;;;;;;;;;;6212632;23;20079;-52
2021/06/28 08:48:48;;;;;;;6.00;2.78;;;;;;;;;;6212386;23;20379;-52
2021/06/28 08:51:15;;;;;;;3.97;2.25;;;;;;;;;;6214986;23;20012;-51
2021/06/28 08:53:41;;;;;;;3.22;2.72;;;;;;;;;;6212521;23;20076;-53
2021/06/28 08:56:07;;;;;;;5.28;2.50;;;;;;;;;;6212228;23;20004;-51
2021/06/28 08:58:38;;;;;;;3.80;3.00;;;;;;;;;;6213711;23;20039;-53
2021/06/28 09:01:04;;;;;;;5.00;3.08;;;;;;;;;;6214674;23;20015;-52
2021/06/28 09:03:30;;;;;;;2.92;2.63;;;;;;;;;;6213815;23;20005;-51
2021/06/28 09:06:04;;;;;;;3.53;2.80;;;;;;;;;;6213410;23;20007;-52
2021/06/28 09:08:34;;;;;;;3.90;2.75;;;;;;;;;;6213589;23;20071;-55
2021/06/28 09:11:00;;;;;;;3.08;2.78;;;;;;;;;;6213924;23;19996;-57
2021/06/28 09:13:36;;;;;;;4.13;2.38;;;;;;;;;;6214042;23;20495;-51
2021/06/28 09:16:13;;;;;;;3.15;2.33;;;;;;;;;;6214656;23;20074;-50
2021/06/28 09:18:48;;;;;;;2.53;2.30;;;;;;;;;;6213754;23;20012;-54
2021/06/28 09:21:15;;;;;;;2.78;2.47;;;;;;;;;;6214566;23;20047;-50
2021/06/28 09:23:42;;;;;;;2.80;2.20;;;;;;;;;;6214270;23;20004;-52
2021/06/28 09:26:14;;;;;;;12.75;3.22;;;;;;;;;;6186267;23;20051;-52
2021/06/28 09:28:41;;;;;;;2.55;2.30;;;;;;;;;;6212678;23;20470;-52
2021/06/28 09:31:09;;;;;;;3.70;2.28;;;;;;;;;;6213721;23;20001;-52
2021/06/28 09:33:36;;;;;;;3.35;2.40;;;;;;;;;;6212763;23;20043;-52
2021/06/28 09:36:23;;;;;;;2.90;2.38;;;;;;;;;;6214593;23;20294;-52
2021/06/28 09:38:49;;;;;;;2.10;1.90;;;;;;;;;;6213147;23;20005;-54
2021/06/28 09:41:34;;;;;;;3.35;2.30;;;;;;;;;;6213998;23;20016;-54
2021/06/28 09:44:00;;;;;;;3.15;2.00;;;;;;;;;;6187600;23;20313;-55
2021/06/28 09:46:26;;;;;;;5.15;2.63;;;;;;;;;;6214446;23;20000;-51
2021/06/28 09:48:54;;;;;;;3.25;2.00;;;;;;;;;;6213360;23;20019;-51
2021/06/28 09:51:27;;;;;;;3.08;2.33;;;;;;;;;;6214033;23;20062;-54
2021/06/28 09:54:15;;;;;;;5.45;2.10;;;;;;;;;;6213507;23;20005;-56
2021/06/28 09:56:43;;;;;;;3.45;2.20;;;;;;;;;;6211758;23;20003;-52
2021/06/28 09:59:35;;;;;;;3.45;2.22;;;;;;;;;;6211076;23;20139;-54
2021/06/28 10:02:18;;;;;;;2.97;2.50;;;;;;;;;;6211845;23;20019;-53
2021/06/28 10:04:52;;;;;;;6.10;2.53;;;;;;;;;;6213579;23;20005;-53
2021/06/28 10:07:19;;;;;;;2.78;2.40;;;;;;;;;;6211929;23;20066;-52
2021/06/28 10:09:46;;;;;;;2.83;2.30;;;;;;;;;;6210531;23;20020;-54
2021/06/28 10:12:21;;;;;;;3.33;2.38;;;;;;;;;;6211757;23;20004;-51
2021/06/28 10:14:47;;;;;;;5.38;2.22;;;;;;;;;;6210902;23;20035;-52
2021/06/28 10:17:14;;;;;;;3.22;2.22;;;;;;;;;;6211204;23;20004;-53
2021/06/28 10:19:42;;;;;;;3.42;2.17;;;;;;;;;;6211148;23;20016;-52
2021/06/28 10:22:08;;;;;;;3.95;2.00;;;;;;;;;;6211985;23;20008;-52
2021/06/28 10:24:35;;;;;;;4.50;2.10;;;;;;;;;;6212141;23;20032;-51
2021/06/28 10:27:02;;;;;;;2.70;2.10;;;;;;;;;;6213153;23;20024;-54
2021/06/28 10:29:28;;;;;;;3.78;2.00;;;;;;;;;;6213489;23;20005;-53
2021/06/28 10:31:54;;;;;;;3.08;1.83;;;;;;;;;;6214684;23;20000;-55
2021/06/28 10:34:20;;;;;;;2.53;2.13;;;;;;;;;;6214697;23;20079;-53
2021/06/28 10:36:47;;;;;;;2.53;2.15;;;;;;;;;;6187794;23;20020;-51
2021/06/28 10:39:24;;;;;;;2.60;1.90;;;;;;;;;;6214825;23;20310;-55
2021/06/28 10:41:52;;;;;;;3.20;2.15;;;;;;;;;;6214283;23;20004;-51
2021/06/28 10:44:19;;;;;;;2.97;1.80;;;;;;;;;;6214602;23;20004;-53
2021/06/28 10:46:50;;;;;;;2.58;1.90;;;;;;;;;;6216570;23;20354;-51
2021/06/28 10:49:17;;;;;;;5.72;1.98;;;;;;;;;;6215439;23;20054;-52
2021/06/28 10:51:46;;;;;;;3.45;2.10;;;;;;;;;;6216634;23;20003;-52
2021/06/28 10:54:14;;;;;;;3.30;2.10;;;;;;;;;;6216005;23;19997;-57
2021/06/28 10:56:43;;;;;;;3.55;1.55;;;;;;;;;;6216046;23;20274;-52
2021/06/28 10:59:14;;;;;;;3.35;2.15;;;;;;;;;;6215437;23;20375;-51
2021/06/28 11:01:40;;;;;;;6.05;2.00;;;;;;;;;;6215393;23;20004;-55
2021/06/28 11:04:12;;;;;;;3.92;1.90;;;;;;;;;;6215088;23;20076;-54
2021/06/28 11:06:57;;;;;;;3.25;1.90;;;;;;;;;;6216019;23;20016;-54
2021/06/28 11:09:35;;;;;;;2.22;2.00;;;;;;;;;;6215422;23;20007;-52
2021/06/28 11:12:01;;;;;;;2.75;1.90;;;;;;;;;;6215490;23;20008;-57
2021/06/28 11:14:27;;;;;;;11.40;2.65;;;;;;;;;;6215556;23;20012;-52
2021/06/28 11:17:16;;;;;;;2.22;1.75;;;;;;;;;;6215844;23;20410;-51
2021/06/28 11:19:46;;;;;;;11.82;1.77;;;;;;;;;;6215060;23;20004;-51
2021/06/28 11:22:33;;;;;;;2.90;2.13;;;;;;;;;;6215735;23;20477;-54
2021/06/28 11:25:08;;;;;;;3.63;1.98;;;;;;;;;;6215970;23;20496;-54
2021/06/28 11:27:39;;;;;;;2.00;1.70;;;;;;;;;;6188454;23;20005;-51
2021/06/28 11:30:16;;;;;;;2.72;1.77;;;;;;;;;;6215904;23;20031;-53
2021/06/28 11:33:14;;;;;;;2.33;2.00;;;;;;;;;;6215692;23;20031;-52
2021/06/28 11:35:46;;;;;;;1.90;1.48;;;;;;;;;;6132688;23;20005;-52
2021/06/28 11:38:14;;;;;;;3.17;2.03;;;;;;;;;;6212552;23;20015;-51
2021/06/28 11:40:41;;;;;;;4.63;2.10;;;;;;;;;;6213811;23;20054;-54
2021/06/28 11:43:07;;;;;;;5.07;1.73;;;;;;;;;;6213877;23;20008;-53
2021/06/28 11:45:50;;;;;;;2.47;1.80;;;;;;;;;;6213181;23;20103;-53
2021/06/28 11:48:31;;;;;;;3.22;2.03;;;;;;;;;;6213266;23;20333;-56
2021/06/28 11:50:57;;;;;;;2.70;1.98;;;;;;;;;;6213730;23;20535;-53
2021/06/28 11:53:23;;;;;;;7.28;2.42;;;;;;;;;;6213387;23;20420;-53
2021/06/28 11:55:49;;;;;;;2.15;1.83;;;;;;;;;;6213245;23;20310;-56
2021/06/28 11:58:16;;;;;;;2.83;2.20;;;;;;;;;;6212307;23;20405;-54
2021/06/28 12:00:42;;;;;;;4.72;1.80;;;;;;;;;;6213182;23;20008;-51
2021/06/28 12:03:12;;;;;;;2.10;1.80;;;;;;;;;;6213427;23;20008;-54
2021/06/28 12:05:39;;;;;;;2.10;1.90;;;;;;;;;;6213538;23;20027;-55
2021/06/28 12:08:05;;;;;;;2.95;1.90;;;;;;;;;;6212815;23;20032;-52
2021/06/28 12:10:31;;;;;;;2.30;2.00;;;;;;;;;;6213543;23;20032;-53
2021/06/28 12:12:58;;;;;;;2.97;2.00;;;;;;;;;;6215368;23;20020;-53
2021/06/28 12:15:25;;;;;;;2.97;2.10;;;;;;;;;;6189095;23;20369;-50
2021/06/28 12:17:51;;;;;;;2.40;1.92;;;;;;;;;;6215146;23;20000;-52
2021/06/28 12:20:18;;;;;;;2.63;2.17;;;;;;;;;;6214485;23;20004;-53
2021/06/28 12:22:44;;;;;;;3.08;2.25;;;;;;;;;;6213804;23;20019;-51
2021/06/28 12:25:14;;;;;;;2.95;2.20;;;;;;;;;;6214543;23;20031;-53
2021/06/28 12:27:41;;;;;;;2.50;1.95;;;;;;;;;;6214524;23;20075;-52
2021/06/28 12:30:08;;;;;;;2.92;2.03;;;;;;;;;;6214707;23;20007;-53
2021/06/28 12:32:35;;;;;;;6.72;2.20;;;;;;;;;;6214280;23;20009;-52
2021/06/28 12:35:03;;;;;;;6.30;1.70;;;;;;;;;;6213866;23;20024;-54
2021/06/28 12:37:31;;;;;;;3.72;1.67;;;;;;;;;;6214535;23;20005;-53
2021/06/28 12:40:13;;;;;;;1.92;1.73;;;;;;;;;;6214210;23;20001;-52
2021/06/28 12:42:40;;;;;;;2.13;1.80;;;;;;;;;;6213845;23;20452;-50
2021/06/28 12:45:06;;;;;;;2.63;1.88;;;;;;;;;;6214610;23;20004;-50
2021/06/28 12:47:32;;;;;;;2.03;1.63;;;;;;;;;;6213386;23;20063;-51
2021/06/28 12:49:59;;;;;;;4.47;1.77;;;;;;;;;;6213494;23;20021;-49
2021/06/28 12:52:35;;;;;;;4.13;2.10;;;;;;;;;;6214028;23;19996;-51
2021/06/28 12:55:10;;;;;;;2.13;1.75;;;;;;;;;;6214193;23;20027;-51
2021/06/28 12:57:37;;;;;;;2.28;1.80;;;;;;;;;;6213079;23;20079;-51
2021/06/28 13:00:15;;;;;;;2.58;1.83;;;;;;;;;;6213720;23;20581;-52
2021/06/28 13:02:41;;;;;;;5.20;1.83;;;;;;;;;;6214241;23;20005;-50
2021/06/28 13:05:08;;;;;;;3.90;1.83;;;;;;;;;;6213518;23;20522;-49
2021/06/28 13:07:35;;;;;;;3.10;1.92;;;;;;;;;;6214192;23;20480;-49
2021/06/28 13:10:03;;;;;;;2.22;1.73;;;;;;;;;;6214817;23;19996;-49
2021/06/28 13:12:29;;;;;;;2.28;1.80;;;;;;;;;;6214459;23;20005;-48
2021/06/28 13:15:25;;;;;;;4.55;2.08;;;;;;;;;;6214401;23;20005;-50
2021/06/28 13:17:58;;;;;;;1.55;1.45;;;;;;;;;;6214097;23;20008;-52
2021/06/28 13:20:24;;;;;;;3.85;1.90;;;;;;;;;;6214152;23;20005;-51
2021/06/28 13:22:50;;;;;;;2.80;2.03;;;;;;;;;;6214570;23;20001;-51
2021/06/28 13:25:20;;;;;;;2.58;2.08;;;;;;;;;;6214265;23;20001;-52
2021/06/28 13:27:46;;;;;;;2.03;1.70;;;;;;;;;;6213803;23;20051;-51
2021/06/28 13:30:16;;;;;;;4.75;2.13;;;;;;;;;;6214786;23;20012;-50
2021/06/28 13:32:42;;;;;;;2.83;1.90;;;;;;;;;;6213755;23;20039;-50
2021/06/28 13:35:09;;;;;;;2.05;1.83;;;;;;;;;;6187846;23;20004;-53
2021/06/28 13:37:37;;;;;;;2.67;2.08;;;;;;;;;;6214260;23;20012;-51
2021/06/28 13:40:19;;;;;;;2.45;1.92;;;;;;;;;;6214724;23;20680;-53
2021/06/28 13:42:48;;;;;;;3.65;2.00;;;;;;;;;;6214338;23;20028;-50
2021/06/28 13:45:15;;;;;;;4.07;1.80;;;;;;;;;;6211733;23;20472;-54
2021/06/28 13:48:00;;;;;;;3.20;2.25;;;;;;;;;;6212166;23;20008;-54
2021/06/28 13:50:27;;;;;;;1.90;1.50;;;;;;;;;;6213417;23;20005;-51
2021/06/28 13:52:54;;;;;;;1.55;1.45;;;;;;;;;;6213927;23;20004;-49
2021/06/28 13:55:20;;;;;;;4.57;2.17;;;;;;;;;;6213753;23;20413;-55
2021/06/28 13:57:50;;;;;;;2.20;1.83;;;;;;;;;;6213735;23;20031;-54
2021/06/28 14:00:17;;;;;;;2.05;1.65;;;;;;;;;;6214239;23;20004;-48
2021/06/28 14:02:43;;;;;;;8.13;1.80;;;;;;;;;;6214583;23;20640;-52
2021/06/28 14:05:10;;;;;;;5.78;1.70;;;;;;;;;;6214959;23;19997;-53
2021/06/28 14:07:36;;;;;;;2.13;1.60;;;;;;;;;;6214261;23;20039;-49
2021/06/28 14:10:02;;;;;;;1.70;1.60;;;;;;;;;;6213040;23;20031;-51
2021/06/28 14:12:28;;;;;;;2.67;2.00;;;;;;;;;;6213275;23;20325;-51
2021/06/28 14:14:54;;;;;;;3.17;1.80;;;;;;;;;;6211786;23;20059;-50
2021/06/28 14:17:20;;;;;;;2.10;1.60;;;;;;;;;;6211633;23;20012;-50
2021/06/28 14:19:46;;;;;;;1.92;1.63;;;;;;;;;;6211602;23;20004;-49
2021/06/28 14:22:12;;;;;;;2.40;1.95;;;;;;;;;;6214453;23;20013;-55
2021/06/28 14:24:38;;;;;;;2.58;2.13;;;;;;;;;;6213076;23;19996;-53
2021/06/28 14:27:04;;;;;;;2.22;2.03;;;;;;;;;;6213283;23;20542;-55
2021/06/28 14:29:33;;;;;;;2.60;2.13;;;;;;;;;;6215110;23;20087;-55
2021/06/28 14:31:59;;;;;;;8.75;2.72;;;;;;;;;;6213334;23;20001;-57
2021/06/28 14:34:25;;;;;;;3.72;2.00;;;;;;;;;;6213351;23;20076;-55
2021/06/28 14:36:51;;;;;;;2.80;1.90;;;;;;;;;;6213979;23;20055;-50
2021/06/28 14:39:17;;;;;;;2.67;2.15;;;;;;;;;;6212135;23;20401;-53
2021/06/28 14:41:43;;;;;;;2.92;1.85;;;;;;;;;;6213745;23;20008;-53
2021/06/28 14:44:09;;;;;;;3.75;1.80;;;;;;;;;;6213897;23;20039;-55
2021/06/28 14:46:35;;;;;;;2.90;1.90;;;;;;;;;;6214813;23;20001;-50